sensor_id;sensor_type;location;lat;lon;timestamp;P1;durP1;ratioP1;P2;durP2;ratioP2
10882;SDS011;5494;51.796;10.952;2023-01-25T00:02:12;14.13;;;8.38;;
10882;SDS011;5494;51.796;10.952;2023-01-25T00:04:40;13.05;;;6.68;;
10882;SDS011;5494;51.796;10.952;2023-01-25T00:07:09;15.65;;;8.25;;
10882;SDS011;5494;51.796;10.952;2023-01-25T00:09:37;15.82;;;7.65;;
10882;SDS011;5494;51.796;10.952;2023-01-25T00:12:05;14.88;;;7.95;;
10882;SDS011;5494;51.796;10.952;2023-01-25T00:14:33;11.55;;;6.65;;
10882;SDS011;5494;51.796;10.952;2023-01-25T00:17:01;14.15;;;7.40;;
10882;SDS011;5494;51.796;10.952;2023-01-25T00:19:29;12.10;;;7.15;;
10882;SDS011;5494;51.796;10.952;2023-01-25T00:21:57;14.63;;;7.25;;
10882;SDS011;5494;51.796;10.952;2023-01-25T00:24:27;15.23;;;7.45;;
10882;SDS011;5494;51.796;10.952;2023-01-25T00:26:55;15.70;;;7.55;;
10882;SDS011;5494;51.796;10.952;2023-01-25T00:29:23;16.67;;;8.55;;
10882;SDS011;5494;51.796;10.952;2023-01-25T00:31:57;17.95;;;8.80;;
10882;SDS011;5494;51.796;10.952;2023-01-25T00:34:55;15.13;;;8.55;;
10882;SDS011;5494;51.796;10.952;2023-01-25T00:37:24;17.23;;;9.18;;
10882;SDS011;5494;51.796;10.952;2023-01-25T00:40:04;17.67;;;9.25;;
10882;SDS011;5494;51.796;10.952;2023-01-25T00:42:35;17.85;;;8.40;;
10882;SDS011;5494;51.796;10.952;2023-01-25T00:45:04;12.90;;;7.47;;
10882;SDS011;5494;51.796;10.952;2023-01-25T00:47:34;16.25;;;7.75;;
10882;SDS011;5494;51.796;10.952;2023-01-25T00:50:03;13.82;;;7.57;;
10882;SDS011;5494;51.796;10.952;2023-01-25T00:52:32;13.32;;;7.10;;
10882;SDS011;5494;51.796;10.952;2023-01-25T00:55:00;14.98;;;7.95;;
10882;SDS011;5494;51.796;10.952;2023-01-25T00:57:30;13.77;;;7.18;;
10882;SDS011;5494;51.796;10.952;2023-01-25T00:59:58;12.68;;;7.55;;
10882;SDS011;5494;51.796;10.952;2023-01-25T01:02:26;13.15;;;7.20;;
10882;SDS011;5494;51.796;10.952;2023-01-25T01:04:57;12.52;;;6.90;;
10882;SDS011;5494;51.796;10.952;2023-01-25T01:07:25;16.38;;;9.10;;
10882;SDS011;5494;51.796;10.952;2023-01-25T01:09:54;18.27;;;8.80;;
10882;SDS011;5494;51.796;10.952;2023-01-25T01:12:23;14.88;;;6.78;;
10882;SDS011;5494;51.796;10.952;2023-01-25T01:14:52;17.75;;;9.10;;
10882;SDS011;5494;51.796;10.952;2023-01-25T01:17:20;15.95;;;8.45;;
10882;SDS011;5494;51.796;10.952;2023-01-25T01:19:48;14.70;;;7.47;;
10882;SDS011;5494;51.796;10.952;2023-01-25T01:22:16;13.20;;;6.85;;
10882;SDS011;5494;51.796;10.952;2023-01-25T01:24:46;12.10;;;7.32;;
10882;SDS011;5494;51.796;10.952;2023-01-25T01:27:14;14.57;;;7.82;;
10882;SDS011;5494;51.796;10.952;2023-01-25T01:29:42;14.70;;;7.97;;
10882;SDS011;5494;51.796;10.952;2023-01-25T01:32:11;11.57;;;6.47;;
10882;SDS011;5494;51.796;10.952;2023-01-25T01:34:40;13.15;;;6.55;;
10882;SDS011;5494;51.796;10.952;2023-01-25T01:37:10;12.80;;;7.18;;
10882;SDS011;5494;51.796;10.952;2023-01-25T01:39:39;11.18;;;5.80;;
10882;SDS011;5494;51.796;10.952;2023-01-25T01:42:07;10.75;;;5.85;;
10882;SDS011;5494;51.796;10.952;2023-01-25T01:44:42;12.02;;;6.28;;
10882;SDS011;5494;51.796;10.952;2023-01-25T01:47:16;13.15;;;6.28;;
10882;SDS011;5494;51.796;10.952;2023-01-25T01:49:54;11.07;;;6.35;;
10882;SDS011;5494;51.796;10.952;2023-01-25T01:52:31;13.40;;;7.30;;
10882;SDS011;5494;51.796;10.952;2023-01-25T01:55:05;12.70;;;6.40;;
10882;SDS011;5494;51.796;10.952;2023-01-25T01:57:41;12.38;;;6.88;;
10882;SDS011;5494;51.796;10.952;2023-01-25T02:00:16;15.00;;;7.88;;
10882;SDS011;5494;51.796;10.952;2023-01-25T02:02:50;15.55;;;7.63;;
10882;SDS011;5494;51.796;10.952;2023-01-25T02:05:19;11.60;;;7.07;;
10882;SDS011;5494;51.796;10.952;2023-01-25T02:07:55;14.18;;;7.50;;
10882;SDS011;5494;51.796;10.952;2023-01-25T02:10:25;13.55;;;6.13;;
10882;SDS011;5494;51.796;10.952;2023-01-25T02:12:54;11.23;;;5.90;;
10882;SDS011;5494;51.796;10.952;2023-01-25T02:15:26;11.98;;;6.43;;
10882;SDS011;5494;51.796;10.952;2023-01-25T02:17:59;11.05;;;6.30;;
10882;SDS011;5494;51.796;10.952;2023-01-25T02:20:28;12.70;;;6.72;;
10882;SDS011;5494;51.796;10.952;2023-01-25T02:23:06;13.52;;;6.45;;
10882;SDS011;5494;51.796;10.952;2023-01-25T02:25:48;15.32;;;6.60;;
10882;SDS011;5494;51.796;10.952;2023-01-25T02:28:18;13.85;;;6.35;;
10882;SDS011;5494;51.796;10.952;2023-01-25T02:30:52;11.07;;;6.07;;
10882;SDS011;5494;51.796;10.952;2023-01-25T02:33:22;11.15;;;6.10;;
10882;SDS011;5494;51.796;10.952;2023-01-25T02:35:53;11.60;;;6.22;;
10882;SDS011;5494;51.796;10.952;2023-01-25T02:38:26;10.70;;;5.57;;
10882;SDS011;5494;51.796;10.952;2023-01-25T02:41:03;13.50;;;7.03;;
10882;SDS011;5494;51.796;10.952;2023-01-25T02:43:38;10.93;;;5.60;;
10882;SDS011;5494;51.796;10.952;2023-01-25T02:46:08;11.50;;;5.72;;
10882;SDS011;5494;51.796;10.952;2023-01-25T02:48:43;13.98;;;6.80;;
10882;SDS011;5494;51.796;10.952;2023-01-25T02:51:11;10.27;;;6.07;;
10882;SDS011;5494;51.796;10.952;2023-01-25T02:53:39;13.15;;;5.93;;
10882;SDS011;5494;51.796;10.952;2023-01-25T02:56:09;11.13;;;5.55;;
10882;SDS011;5494;51.796;10.952;2023-01-25T02:58:37;12.68;;;6.25;;
10882;SDS011;5494;51.796;10.952;2023-01-25T03:01:05;11.90;;;6.10;;
10882;SDS011;5494;51.796;10.952;2023-01-25T03:03:33;11.50;;;5.57;;
10882;SDS011;5494;51.796;10.952;2023-01-25T03:06:02;8.23;;;5.20;;
10882;SDS011;5494;51.796;10.952;2023-01-25T03:08:30;10.93;;;5.90;;
10882;SDS011;5494;51.796;10.952;2023-01-25T03:11:00;11.70;;;6.03;;
10882;SDS011;5494;51.796;10.952;2023-01-25T03:13:32;10.35;;;5.22;;
10882;SDS011;5494;51.796;10.952;2023-01-25T03:16:04;9.98;;;5.40;;
10882;SDS011;5494;51.796;10.952;2023-01-25T03:18:37;10.27;;;5.18;;
10882;SDS011;5494;51.796;10.952;2023-01-25T03:21:07;10.40;;;5.65;;
10882;SDS011;5494;51.796;10.952;2023-01-25T03:23:38;9.98;;;5.15;;
10882;SDS011;5494;51.796;10.952;2023-01-25T03:26:08;9.65;;;5.55;;
10882;SDS011;5494;51.796;10.952;2023-01-25T03:28:54;12.55;;;5.75;;
10882;SDS011;5494;51.796;10.952;2023-01-25T03:31:22;8.90;;;5.32;;
10882;SDS011;5494;51.796;10.952;2023-01-25T03:33:51;9.00;;;5.43;;
10882;SDS011;5494;51.796;10.952;2023-01-25T03:36:23;10.27;;;5.93;;
10882;SDS011;5494;51.796;10.952;2023-01-25T03:38:51;10.77;;;6.38;;
10882;SDS011;5494;51.796;10.952;2023-01-25T03:41:20;10.35;;;6.22;;
10882;SDS011;5494;51.796;10.952;2023-01-25T03:43:47;10.43;;;5.60;;
10882;SDS011;5494;51.796;10.952;2023-01-25T03:46:17;9.50;;;5.60;;
10882;SDS011;5494;51.796;10.952;2023-01-25T03:48:46;8.13;;;5.50;;
10882;SDS011;5494;51.796;10.952;2023-01-25T03:51:14;7.70;;;4.55;;
10882;SDS011;5494;51.796;10.952;2023-01-25T03:53:42;9.02;;;5.35;;
10882;SDS011;5494;51.796;10.952;2023-01-25T03:56:15;11.05;;;4.88;;
10882;SDS011;5494;51.796;10.952;2023-01-25T03:58:56;9.45;;;5.25;;
10882;SDS011;5494;51.796;10.952;2023-01-25T04:01:26;10.80;;;5.57;;
10882;SDS011;5494;51.796;10.952;2023-01-25T04:03:54;8.10;;;4.82;;
10882;SDS011;5494;51.796;10.952;2023-01-25T04:06:22;9.75;;;5.30;;
10882;SDS011;5494;51.796;10.952;2023-01-25T04:08:50;8.27;;;4.60;;
10882;SDS011;5494;51.796;10.952;2023-01-25T04:11:21;7.28;;;4.65;;
10882;SDS011;5494;51.796;10.952;2023-01-25T04:13:49;7.93;;;4.75;;
10882;SDS011;5494;51.796;10.952;2023-01-25T04:16:19;8.02;;;5.32;;
10882;SDS011;5494;51.796;10.952;2023-01-25T04:19:08;12.88;;;6.32;;
10882;SDS011;5494;51.796;10.952;2023-01-25T04:21:37;9.90;;;6.00;;
10882;SDS011;5494;51.796;10.952;2023-01-25T04:24:06;10.68;;;6.43;;
10882;SDS011;5494;51.796;10.952;2023-01-25T04:26:37;9.20;;;5.18;;
10882;SDS011;5494;51.796;10.952;2023-01-25T04:29:05;9.73;;;5.60;;
10882;SDS011;5494;51.796;10.952;2023-01-25T04:31:33;6.93;;;4.50;;
10882;SDS011;5494;51.796;10.952;2023-01-25T04:34:02;6.85;;;4.63;;
10882;SDS011;5494;51.796;10.952;2023-01-25T04:36:31;7.65;;;4.65;;
10882;SDS011;5494;51.796;10.952;2023-01-25T04:39:00;8.43;;;5.45;;
10882;SDS011;5494;51.796;10.952;2023-01-25T04:41:29;9.02;;;4.88;;
10882;SDS011;5494;51.796;10.952;2023-01-25T04:43:57;8.45;;;5.60;;
10882;SDS011;5494;51.796;10.952;2023-01-25T04:46:25;9.77;;;5.80;;
10882;SDS011;5494;51.796;10.952;2023-01-25T04:48:53;7.88;;;4.82;;
10882;SDS011;5494;51.796;10.952;2023-01-25T04:51:21;12.50;;;6.93;;
10882;SDS011;5494;51.796;10.952;2023-01-25T04:53:51;9.07;;;5.45;;
10882;SDS011;5494;51.796;10.952;2023-01-25T04:56:19;7.78;;;4.57;;
10882;SDS011;5494;51.796;10.952;2023-01-25T04:58:51;8.75;;;5.43;;
10882;SDS011;5494;51.796;10.952;2023-01-25T05:01:20;8.10;;;5.32;;
10882;SDS011;5494;51.796;10.952;2023-01-25T05:03:49;9.35;;;5.47;;
10882;SDS011;5494;51.796;10.952;2023-01-25T05:06:27;7.88;;;5.40;;
10882;SDS011;5494;51.796;10.952;2023-01-25T05:08:57;7.70;;;5.18;;
10882;SDS011;5494;51.796;10.952;2023-01-25T05:11:25;6.53;;;4.28;;
10882;SDS011;5494;51.796;10.952;2023-01-25T05:14:00;8.55;;;4.97;;
10882;SDS011;5494;51.796;10.952;2023-01-25T05:16:31;9.20;;;4.95;;
10882;SDS011;5494;51.796;10.952;2023-01-25T05:18:59;9.13;;;5.90;;
10882;SDS011;5494;51.796;10.952;2023-01-25T05:22:03;8.55;;;4.88;;
10882;SDS011;5494;51.796;10.952;2023-01-25T05:24:42;6.43;;;4.50;;
10882;SDS011;5494;51.796;10.952;2023-01-25T05:27:14;6.75;;;4.63;;
10882;SDS011;5494;51.796;10.952;2023-01-25T05:30:04;7.18;;;4.72;;
10882;SDS011;5494;51.796;10.952;2023-01-25T05:32:48;7.55;;;4.55;;
10882;SDS011;5494;51.796;10.952;2023-01-25T05:35:16;6.57;;;4.07;;
10882;SDS011;5494;51.796;10.952;2023-01-25T05:37:46;7.45;;;4.03;;
10882;SDS011;5494;51.796;10.952;2023-01-25T05:40:21;5.88;;;3.90;;
10882;SDS011;5494;51.796;10.952;2023-01-25T05:42:52;7.45;;;4.28;;
10882;SDS011;5494;51.796;10.952;2023-01-25T05:45:22;7.32;;;4.78;;
10882;SDS011;5494;51.796;10.952;2023-01-25T05:47:52;7.45;;;4.10;;
10882;SDS011;5494;51.796;10.952;2023-01-25T05:50:22;6.85;;;3.60;;
10882;SDS011;5494;51.796;10.952;2023-01-25T05:53:14;8.45;;;4.40;;
10882;SDS011;5494;51.796;10.952;2023-01-25T05:55:47;7.28;;;4.22;;
10882;SDS011;5494;51.796;10.952;2023-01-25T05:58:15;9.25;;;6.03;;
10882;SDS011;5494;51.796;10.952;2023-01-25T06:00:43;8.13;;;5.10;;
10882;SDS011;5494;51.796;10.952;2023-01-25T06:03:21;9.05;;;5.10;;
10882;SDS011;5494;51.796;10.952;2023-01-25T06:05:53;7.13;;;4.57;;
10882;SDS011;5494;51.796;10.952;2023-01-25T06:08:22;6.90;;;4.15;;
10882;SDS011;5494;51.796;10.952;2023-01-25T06:10:53;7.70;;;4.65;;
10882;SDS011;5494;51.796;10.952;2023-01-25T06:13:21;9.98;;;5.40;;
10882;SDS011;5494;51.796;10.952;2023-01-25T06:15:52;7.05;;;4.18;;
10882;SDS011;5494;51.796;10.952;2023-01-25T06:18:40;8.07;;;4.93;;
10882;SDS011;5494;51.796;10.952;2023-01-25T06:21:28;7.43;;;5.40;;
10882;SDS011;5494;51.796;10.952;2023-01-25T06:23:56;10.18;;;5.32;;
10882;SDS011;5494;51.796;10.952;2023-01-25T06:26:25;9.50;;;5.03;;
10882;SDS011;5494;51.796;10.952;2023-01-25T06:28:53;8.82;;;4.97;;
10882;SDS011;5494;51.796;10.952;2023-01-25T06:31:21;8.80;;;5.53;;
10882;SDS011;5494;51.796;10.952;2023-01-25T06:33:50;8.52;;;4.80;;
10882;SDS011;5494;51.796;10.952;2023-01-25T06:36:21;6.55;;;4.40;;
10882;SDS011;5494;51.796;10.952;2023-01-25T06:38:49;8.20;;;4.80;;
10882;SDS011;5494;51.796;10.952;2023-01-25T06:41:19;8.43;;;4.93;;
10882;SDS011;5494;51.796;10.952;2023-01-25T06:43:50;8.18;;;5.47;;
10882;SDS011;5494;51.796;10.952;2023-01-25T06:46:19;9.57;;;5.63;;
10882;SDS011;5494;51.796;10.952;2023-01-25T06:48:47;10.80;;;6.07;;
10882;SDS011;5494;51.796;10.952;2023-01-25T06:51:15;9.35;;;5.65;;
10882;SDS011;5494;51.796;10.952;2023-01-25T06:53:45;7.88;;;5.40;;
10882;SDS011;5494;51.796;10.952;2023-01-25T06:56:14;8.25;;;5.35;;
10882;SDS011;5494;51.796;10.952;2023-01-25T06:58:47;8.27;;;4.90;;
10882;SDS011;5494;51.796;10.952;2023-01-25T07:01:17;9.80;;;5.50;;
10882;SDS011;5494;51.796;10.952;2023-01-25T07:03:48;9.18;;;5.82;;
10882;SDS011;5494;51.796;10.952;2023-01-25T07:06:18;8.07;;;6.03;;
10882;SDS011;5494;51.796;10.952;2023-01-25T07:08:47;7.65;;;4.53;;
10882;SDS011;5494;51.796;10.952;2023-01-25T07:11:15;9.65;;;5.47;;
10882;SDS011;5494;51.796;10.952;2023-01-25T07:13:44;7.70;;;4.55;;
10882;SDS011;5494;51.796;10.952;2023-01-25T07:16:17;9.55;;;6.45;;
10882;SDS011;5494;51.796;10.952;2023-01-25T07:18:47;10.00;;;6.00;;
10882;SDS011;5494;51.796;10.952;2023-01-25T07:21:16;8.82;;;6.13;;
10882;SDS011;5494;51.796;10.952;2023-01-25T07:23:46;8.13;;;5.35;;
10882;SDS011;5494;51.796;10.952;2023-01-25T07:26:15;8.95;;;5.78;;
10882;SDS011;5494;51.796;10.952;2023-01-25T07:28:45;7.25;;;4.97;;
10882;SDS011;5494;51.796;10.952;2023-01-25T07:31:15;8.77;;;6.18;;
10882;SDS011;5494;51.796;10.952;2023-01-25T07:33:46;9.25;;;6.30;;
10882;SDS011;5494;51.796;10.952;2023-01-25T07:36:15;8.15;;;4.95;;
10882;SDS011;5494;51.796;10.952;2023-01-25T07:38:44;8.20;;;5.03;;
10882;SDS011;5494;51.796;10.952;2023-01-25T07:41:13;7.53;;;4.88;;
10882;SDS011;5494;51.796;10.952;2023-01-25T07:43:41;8.10;;;5.10;;
10882;SDS011;5494;51.796;10.952;2023-01-25T07:46:10;6.25;;;4.32;;
10882;SDS011;5494;51.796;10.952;2023-01-25T07:48:44;9.15;;;5.55;;
10882;SDS011;5494;51.796;10.952;2023-01-25T07:51:13;7.53;;;5.10;;
10882;SDS011;5494;51.796;10.952;2023-01-25T07:53:52;8.82;;;5.13;;
10882;SDS011;5494;51.796;10.952;2023-01-25T07:56:23;7.55;;;5.18;;
10882;SDS011;5494;51.796;10.952;2023-01-25T07:58:53;7.75;;;4.82;;
10882;SDS011;5494;51.796;10.952;2023-01-25T08:01:23;7.97;;;5.25;;
10882;SDS011;5494;51.796;10.952;2023-01-25T08:03:55;6.53;;;3.97;;
10882;SDS011;5494;51.796;10.952;2023-01-25T08:06:24;6.90;;;4.53;;
10882;SDS011;5494;51.796;10.952;2023-01-25T08:08:56;6.85;;;4.47;;
10882;SDS011;5494;51.796;10.952;2023-01-25T08:11:26;10.55;;;5.97;;
10882;SDS011;5494;51.796;10.952;2023-01-25T08:13:58;8.38;;;6.28;;
10882;SDS011;5494;51.796;10.952;2023-01-25T08:16:27;10.15;;;6.13;;
10882;SDS011;5494;51.796;10.952;2023-01-25T08:18:59;9.23;;;6.07;;
10882;SDS011;5494;51.796;10.952;2023-01-25T08:21:30;9.57;;;5.95;;
10882;SDS011;5494;51.796;10.952;2023-01-25T08:24:00;9.45;;;5.82;;
10882;SDS011;5494;51.796;10.952;2023-01-25T08:26:31;8.18;;;5.38;;
10882;SDS011;5494;51.796;10.952;2023-01-25T08:29:00;11.63;;;7.18;;
10882;SDS011;5494;51.796;10.952;2023-01-25T08:31:29;11.00;;;6.10;;
10882;SDS011;5494;51.796;10.952;2023-01-25T08:34:02;7.60;;;5.43;;
10882;SDS011;5494;51.796;10.952;2023-01-25T08:36:30;8.45;;;5.18;;
10882;SDS011;5494;51.796;10.952;2023-01-25T08:38:59;9.88;;;5.90;;
10882;SDS011;5494;51.796;10.952;2023-01-25T08:41:30;8.15;;;5.20;;
10882;SDS011;5494;51.796;10.952;2023-01-25T08:43:59;8.77;;;5.78;;
10882;SDS011;5494;51.796;10.952;2023-01-25T08:46:28;7.45;;;4.75;;
10882;SDS011;5494;51.796;10.952;2023-01-25T08:48:59;9.57;;;5.35;;
10882;SDS011;5494;51.796;10.952;2023-01-25T08:51:30;7.80;;;5.10;;
10882;SDS011;5494;51.796;10.952;2023-01-25T08:54:02;8.40;;;4.93;;
10882;SDS011;5494;51.796;10.952;2023-01-25T08:56:31;8.80;;;5.47;;
10882;SDS011;5494;51.796;10.952;2023-01-25T08:59:00;8.70;;;5.50;;
10882;SDS011;5494;51.796;10.952;2023-01-25T09:01:28;7.03;;;5.05;;
10882;SDS011;5494;51.796;10.952;2023-01-25T09:03:56;7.45;;;5.47;;
10882;SDS011;5494;51.796;10.952;2023-01-25T09:06:26;8.82;;;5.43;;
10882;SDS011;5494;51.796;10.952;2023-01-25T09:08:54;7.00;;;4.63;;
10882;SDS011;5494;51.796;10.952;2023-01-25T09:11:24;10.00;;;6.30;;
10882;SDS011;5494;51.796;10.952;2023-01-25T09:13:52;8.57;;;6.10;;
10882;SDS011;5494;51.796;10.952;2023-01-25T09:16:20;6.95;;;4.78;;
10882;SDS011;5494;51.796;10.952;2023-01-25T09:18:55;7.10;;;4.78;;
10882;SDS011;5494;51.796;10.952;2023-01-25T09:21:26;7.60;;;5.53;;
10882;SDS011;5494;51.796;10.952;2023-01-25T09:23:55;7.72;;;4.90;;
10882;SDS011;5494;51.796;10.952;2023-01-25T09:26:33;6.35;;;4.47;;
10882;SDS011;5494;51.796;10.952;2023-01-25T09:29:03;7.10;;;5.20;;
10882;SDS011;5494;51.796;10.952;2023-01-25T09:31:33;9.10;;;5.43;;
10882;SDS011;5494;51.796;10.952;2023-01-25T09:34:13;7.65;;;4.70;;
10882;SDS011;5494;51.796;10.952;2023-01-25T09:36:43;7.72;;;4.45;;
10882;SDS011;5494;51.796;10.952;2023-01-25T09:39:11;9.32;;;5.07;;
10882;SDS011;5494;51.796;10.952;2023-01-25T09:41:44;7.18;;;4.90;;
10882;SDS011;5494;51.796;10.952;2023-01-25T09:45:08;7.28;;;4.38;;
10882;SDS011;5494;51.796;10.952;2023-01-25T09:47:46;7.38;;;5.28;;
10882;SDS011;5494;51.796;10.952;2023-01-25T09:50:26;7.10;;;4.45;;
10882;SDS011;5494;51.796;10.952;2023-01-25T09:56:02;8.27;;;4.90;;
10882;SDS011;5494;51.796;10.952;2023-01-25T09:58:38;7.63;;;3.97;;
10882;SDS011;5494;51.796;10.952;2023-01-25T10:01:19;6.70;;;4.40;;
10882;SDS011;5494;51.796;10.952;2023-01-25T10:04:09;8.00;;;5.38;;
10882;SDS011;5494;51.796;10.952;2023-01-25T10:06:43;5.10;;;3.50;;
10882;SDS011;5494;51.796;10.952;2023-01-25T10:09:33;5.67;;;4.07;;
10882;SDS011;5494;51.796;10.952;2023-01-25T10:12:12;6.73;;;4.20;;
10882;SDS011;5494;51.796;10.952;2023-01-25T10:14:47;6.93;;;4.23;;
10882;SDS011;5494;51.796;10.952;2023-01-25T10:17:17;7.10;;;5.17;;
10882;SDS011;5494;51.796;10.952;2023-01-25T10:20:02;7.47;;;4.97;;
10882;SDS011;5494;51.796;10.952;2023-01-25T10:22:45;9.37;;;5.90;;
10882;SDS011;5494;51.796;10.952;2023-01-25T10:25:26;9.80;;;5.47;;
10882;SDS011;5494;51.796;10.952;2023-01-25T10:28:04;9.02;;;5.55;;
10882;SDS011;5494;51.796;10.952;2023-01-25T10:30:55;12.55;;;6.53;;
10882;SDS011;5494;51.796;10.952;2023-01-25T10:33:28;10.25;;;6.68;;
10882;SDS011;5494;51.796;10.952;2023-01-25T10:36:04;12.77;;;7.45;;
10882;SDS011;5494;51.796;10.952;2023-01-25T10:38:34;12.15;;;7.32;;
10882;SDS011;5494;51.796;10.952;2023-01-25T10:41:10;12.90;;;6.97;;
10882;SDS011;5494;51.796;10.952;2023-01-25T10:43:46;9.95;;;6.35;;
10882;SDS011;5494;51.796;10.952;2023-01-25T10:46:34;10.05;;;6.50;;
10882;SDS011;5494;51.796;10.952;2023-01-25T10:49:11;12.68;;;7.22;;
10882;SDS011;5494;51.796;10.952;2023-01-25T10:51:49;10.95;;;7.18;;
10882;SDS011;5494;51.796;10.952;2023-01-25T10:54:17;10.48;;;6.30;;
10882;SDS011;5494;51.796;10.952;2023-01-25T10:56:50;9.68;;;6.53;;
10882;SDS011;5494;51.796;10.952;2023-01-25T10:59:20;9.60;;;6.55;;
10882;SDS011;5494;51.796;10.952;2023-01-25T11:01:52;11.50;;;6.93;;
10882;SDS011;5494;51.796;10.952;2023-01-25T11:04:23;11.13;;;6.90;;
10882;SDS011;5494;51.796;10.952;2023-01-25T11:07:00;13.43;;;7.43;;
10882;SDS011;5494;51.796;10.952;2023-01-25T11:09:33;10.98;;;7.38;;
10882;SDS011;5494;51.796;10.952;2023-01-25T11:12:15;13.63;;;7.75;;
10882;SDS011;5494;51.796;10.952;2023-01-25T11:14:47;14.23;;;7.90;;
10882;SDS011;5494;51.796;10.952;2023-01-25T11:17:23;20.48;;;11.02;;
10882;SDS011;5494;51.796;10.952;2023-01-25T11:20:03;17.50;;;10.45;;
10882;SDS011;5494;51.796;10.952;2023-01-25T11:22:49;18.83;;;10.55;;
10882;SDS011;5494;51.796;10.952;2023-01-25T11:25:27;15.65;;;8.93;;
10882;SDS011;5494;51.796;10.952;2023-01-25T11:28:13;14.07;;;8.50;;
10882;SDS011;5494;51.796;10.952;2023-01-25T11:30:45;14.20;;;8.68;;
10882;SDS011;5494;51.796;10.952;2023-01-25T11:33:16;13.40;;;7.80;;
10882;SDS011;5494;51.796;10.952;2023-01-25T11:35:51;13.30;;;7.95;;
10882;SDS011;5494;51.796;10.952;2023-01-25T11:38:36;13.40;;;8.30;;
10882;SDS011;5494;51.796;10.952;2023-01-25T11:41:15;13.38;;;7.78;;
10882;SDS011;5494;51.796;10.952;2023-01-25T11:44:00;14.20;;;8.53;;
10882;SDS011;5494;51.796;10.952;2023-01-25T11:46:55;14.30;;;8.13;;
10882;SDS011;5494;51.796;10.952;2023-01-25T11:49:38;13.87;;;8.03;;
10882;SDS011;5494;51.796;10.952;2023-01-25T11:52:23;15.10;;;8.80;;
10882;SDS011;5494;51.796;10.952;2023-01-25T11:55:06;14.53;;;7.50;;
10882;SDS011;5494;51.796;10.952;2023-01-25T11:57:51;10.88;;;6.93;;
10882;SDS011;5494;51.796;10.952;2023-01-25T12:00:51;11.38;;;7.65;;
10882;SDS011;5494;51.796;10.952;2023-01-25T12:06:32;14.45;;;8.40;;
10882;SDS011;5494;51.796;10.952;2023-01-25T12:09:18;15.88;;;8.52;;
10882;SDS011;5494;51.796;10.952;2023-01-25T12:12:08;14.18;;;7.72;;
10882;SDS011;5494;51.796;10.952;2023-01-25T12:14:55;14.00;;;7.53;;
10882;SDS011;5494;51.796;10.952;2023-01-25T12:17:51;14.25;;;7.20;;
10882;SDS011;5494;51.796;10.952;2023-01-25T12:20:49;17.75;;;7.68;;
10882;SDS011;5494;51.796;10.952;2023-01-25T12:23:35;15.98;;;8.40;;
10882;SDS011;5494;51.796;10.952;2023-01-25T12:26:21;15.45;;;7.75;;
10882;SDS011;5494;51.796;10.952;2023-01-25T12:28:56;16.73;;;8.18;;
10882;SDS011;5494;51.796;10.952;2023-01-25T12:31:34;11.88;;;7.03;;
10882;SDS011;5494;51.796;10.952;2023-01-25T12:34:14;15.75;;;7.65;;
10882;SDS011;5494;51.796;10.952;2023-01-25T12:36:51;16.10;;;8.88;;
10882;SDS011;5494;51.796;10.952;2023-01-25T12:39:21;15.75;;;7.35;;
10882;SDS011;5494;51.796;10.952;2023-01-25T12:41:56;16.02;;;7.32;;
10882;SDS011;5494;51.796;10.952;2023-01-25T12:44:33;14.32;;;7.03;;
10882;SDS011;5494;51.796;10.952;2023-01-25T12:47:10;13.70;;;7.03;;
10882;SDS011;5494;51.796;10.952;2023-01-25T12:49:47;13.15;;;6.80;;
10882;SDS011;5494;51.796;10.952;2023-01-25T12:52:21;13.00;;;7.15;;
10882;SDS011;5494;51.796;10.952;2023-01-25T12:54:56;12.98;;;6.95;;
10882;SDS011;5494;51.796;10.952;2023-01-25T12:57:28;13.33;;;7.80;;
10882;SDS011;5494;51.796;10.952;2023-01-25T13:00:06;13.45;;;6.95;;
10882;SDS011;5494;51.796;10.952;2023-01-25T13:02:52;13.38;;;6.97;;
10882;SDS011;5494;51.796;10.952;2023-01-25T13:05:40;16.67;;;9.10;;
10882;SDS011;5494;51.796;10.952;2023-01-25T13:08:21;17.77;;;9.73;;
10882;SDS011;5494;51.796;10.952;2023-01-25T13:11:05;12.50;;;8.02;;
10882;SDS011;5494;51.796;10.952;2023-01-25T13:13:41;16.83;;;8.20;;
10882;SDS011;5494;51.796;10.952;2023-01-25T13:16:23;15.07;;;7.72;;
10882;SDS011;5494;51.796;10.952;2023-01-25T13:19:17;14.70;;;8.35;;
10882;SDS011;5494;51.796;10.952;2023-01-25T13:21:49;13.98;;;8.50;;
10882;SDS011;5494;51.796;10.952;2023-01-25T13:24:22;15.38;;;7.55;;
10882;SDS011;5494;51.796;10.952;2023-01-25T13:27:00;16.88;;;9.18;;
10882;SDS011;5494;51.796;10.952;2023-01-25T13:35:33;14.07;;;7.57;;
10882;SDS011;5494;51.796;10.952;2023-01-25T13:38:23;18.75;;;8.25;;
10882;SDS011;5494;51.796;10.952;2023-01-25T13:41:04;15.77;;;8.50;;
10882;SDS011;5494;51.796;10.952;2023-01-25T13:43:38;14.25;;;8.80;;
10882;SDS011;5494;51.796;10.952;2023-01-25T13:46:09;11.77;;;7.88;;
10882;SDS011;5494;51.796;10.952;2023-01-25T13:48:46;15.80;;;8.07;;
10882;SDS011;5494;51.796;10.952;2023-01-25T13:51:26;13.25;;;7.82;;
10882;SDS011;5494;51.796;10.952;2023-01-25T13:54:02;14.57;;;8.05;;
10882;SDS011;5494;51.796;10.952;2023-01-25T13:56:31;15.63;;;8.52;;
10882;SDS011;5494;51.796;10.952;2023-01-25T13:59:01;16.85;;;8.82;;
10882;SDS011;5494;51.796;10.952;2023-01-25T14:01:29;17.48;;;9.15;;
10882;SDS011;5494;51.796;10.952;2023-01-25T14:04:02;17.88;;;9.88;;
10882;SDS011;5494;51.796;10.952;2023-01-25T14:06:32;16.20;;;8.05;;
10882;SDS011;5494;51.796;10.952;2023-01-25T14:09:10;14.60;;;7.75;;
10882;SDS011;5494;51.796;10.952;2023-01-25T14:11:43;19.13;;;9.75;;
10882;SDS011;5494;51.796;10.952;2023-01-25T14:14:17;23.25;;;12.07;;
10882;SDS011;5494;51.796;10.952;2023-01-25T14:17:04;24.20;;;12.43;;
10882;SDS011;5494;51.796;10.952;2023-01-25T14:19:43;24.02;;;10.63;;
10882;SDS011;5494;51.796;10.952;2023-01-25T14:22:19;21.03;;;9.83;;
10882;SDS011;5494;51.796;10.952;2023-01-25T14:27:49;16.67;;;8.57;;
10882;SDS011;5494;51.796;10.952;2023-01-25T14:30:21;17.85;;;8.27;;
10882;SDS011;5494;51.796;10.952;2023-01-25T14:32:52;19.30;;;9.20;;
10882;SDS011;5494;51.796;10.952;2023-01-25T14:35:33;16.23;;;8.35;;
10882;SDS011;5494;51.796;10.952;2023-01-25T14:38:27;17.33;;;9.30;;
10882;SDS011;5494;51.796;10.952;2023-01-25T14:41:01;21.95;;;9.98;;
10882;SDS011;5494;51.796;10.952;2023-01-25T14:43:40;22.23;;;10.88;;
10882;SDS011;5494;51.796;10.952;2023-01-25T14:46:18;20.02;;;10.65;;
10882;SDS011;5494;51.796;10.952;2023-01-25T14:49:05;31.55;;;15.60;;
10882;SDS011;5494;51.796;10.952;2023-01-25T14:51:52;19.05;;;9.82;;
10882;SDS011;5494;51.796;10.952;2023-01-25T14:54:29;20.45;;;9.63;;
10882;SDS011;5494;51.796;10.952;2023-01-25T14:57:02;21.00;;;10.90;;
10882;SDS011;5494;51.796;10.952;2023-01-25T14:59:33;20.17;;;11.20;;
10882;SDS011;5494;51.796;10.952;2023-01-25T15:02:10;21.58;;;10.77;;
10882;SDS011;5494;51.796;10.952;2023-01-25T15:04:53;21.27;;;10.52;;
10882;SDS011;5494;51.796;10.952;2023-01-25T15:07:46;21.20;;;11.57;;
10882;SDS011;5494;51.796;10.952;2023-01-25T15:10:17;23.80;;;11.40;;
10882;SDS011;5494;51.796;10.952;2023-01-25T15:12:57;22.50;;;10.90;;
10882;SDS011;5494;51.796;10.952;2023-01-25T15:15:50;27.10;;;14.07;;
10882;SDS011;5494;51.796;10.952;2023-01-25T15:18:42;20.92;;;10.80;;
10882;SDS011;5494;51.796;10.952;2023-01-25T15:21:12;22.13;;;10.05;;
10882;SDS011;5494;51.796;10.952;2023-01-25T15:23:42;19.17;;;10.25;;
10882;SDS011;5494;51.796;10.952;2023-01-25T15:26:14;22.73;;;10.30;;
10882;SDS011;5494;51.796;10.952;2023-01-25T15:28:48;16.90;;;8.90;;
10882;SDS011;5494;51.796;10.952;2023-01-25T15:31:18;20.92;;;10.15;;
10882;SDS011;5494;51.796;10.952;2023-01-25T15:33:50;21.38;;;11.40;;